sensor_id;sensor_type;location;lat;lon;timestamp;pressure;altitude;pressure_sealevel;temperature;humidity
11001;BME280;5553;48.506;8.870;2022-10-26T00:01:21;96775.50;;;9.28;100.00
11001;BME280;5553;48.506;8.870;2022-10-26T00:03:49;96769.94;;;9.23;100.00
11001;BME280;5553;48.506;8.870;2022-10-26T00:06:22;96774.16;;;9.32;100.00
11001;BME280;5553;48.506;8.870;2022-10-26T00:08:52;96777.09;;;9.37;100.00
11001;BME280;5553;48.506;8.870;2022-10-26T00:11:20;96782.97;;;9.39;100.00
11001;BME280;5553;48.506;8.870;2022-10-26T00:13:49;96777.31;;;9.28;100.00
11001;BME280;5553;48.506;8.870;2022-10-26T00:16:19;96778.34;;;9.41;100.00
11001;BME280;5553;48.506;8.870;2022-10-26T00:18:48;96779.72;;;9.37;100.00
11001;BME280;5553;48.506;8.870;2022-10-26T00:21:19;96781.47;;;9.45;100.00
11001;BME280;5553;48.506;8.870;2022-10-26T00:23:48;96773.63;;;9.37;100.00
11001;BME280;5553;48.506;8.870;2022-10-26T00:26:16;96771.97;;;9.36;100.00
11001;BME280;5553;48.506;8.870;2022-10-26T00:28:44;96778.63;;;9.46;100.00
11001;BME280;5553;48.506;8.870;2022-10-26T00:31:14;96784.56;;;9.48;100.00
11001;BME280;5553;48.506;8.870;2022-10-26T00:33:43;96784.56;;;9.48;100.00
11001;BME280;5553;48.506;8.870;2022-10-26T00:36:12;96779.28;;;9.48;100.00
11001;BME280;5553;48.506;8.870;2022-10-26T00:38:47;96783.75;;;9.48;100.00
11001;BME280;5553;48.506;8.870;2022-10-26T00:41:16;96788.19;;;9.47;100.00
11001;BME280;5553;48.506;8.870;2022-10-26T00:43:46;96782.94;;;9.47;100.00
11001;BME280;5553;48.506;8.870;2022-10-26T00:46:16;96772.66;;;9.53;100.00
11001;BME280;5553;48.506;8.870;2022-10-26T00:48:48;96764.41;;;9.56;100.00
11001;BME280;5553;48.506;8.870;2022-10-26T00:51:23;96776.22;;;9.60;100.00
11001;BME280;5553;48.506;8.870;2022-10-26T00:53:55;96782.19;;;9.54;100.00
11001;BME280;5553;48.506;8.870;2022-10-26T00:56:23;96769.97;;;9.61;100.00
11001;BME280;5553;48.506;8.870;2022-10-26T00:58:53;96751.22;;;9.56;100.00
11001;BME280;5553;48.506;8.870;2022-10-26T01:01:23;96745.88;;;9.64;100.00
11001;BME280;5553;48.506;8.870;2022-10-26T01:03:51;96740.25;;;9.67;100.00
11001;BME280;5553;48.506;8.870;2022-10-26T01:06:20;96738.28;;;9.69;100.00
11001;BME280;5553;48.506;8.870;2022-10-26T01:08:49;96749.81;;;9.68;100.00
11001;BME280;5553;48.506;8.870;2022-10-26T01:11:20;96773.34;;;9.69;100.00
11001;BME280;5553;48.506;8.870;2022-10-26T01:13:50;96771.16;;;9.73;100.00
11001;BME280;5553;48.506;8.870;2022-10-26T01:16:42;96774.41;;;9.60;100.00
11001;BME280;5553;48.506;8.870;2022-10-26T01:19:41;96770.59;;;9.63;100.00
11001;BME280;5553;48.506;8.870;2022-10-26T01:22:19;96777.69;;;9.62;100.00
11001;BME280;5553;48.506;8.870;2022-10-26T01:24:58;96776.41;;;9.58;100.00
11001;BME280;5553;48.506;8.870;2022-10-26T01:27:33;96778.28;;;9.49;100.00
11001;BME280;5553;48.506;8.870;2022-10-26T01:30:28;96766.03;;;9.57;100.00
11001;BME280;5553;48.506;8.870;2022-10-26T01:33:12;96776.22;;;9.60;100.00
11001;BME280;5553;48.506;8.870;2022-10-26T01:35:50;96763.41;;;9.57;100.00
11001;BME280;5553;48.506;8.870;2022-10-26T01:38:24;96757.16;;;9.58;100.00
11001;BME280;5553;48.506;8.870;2022-10-26T01:40:58;96769.22;;;9.52;100.00
11001;BME280;5553;48.506;8.870;2022-10-26T01:43:32;96777.13;;;9.52;100.00
11001;BME280;5553;48.506;8.870;2022-10-26T01:46:06;96769.81;;;9.39;100.00
11001;BME280;5553;48.506;8.870;2022-10-26T01:48:36;96752.94;;;9.48;100.00
11001;BME280;5553;48.506;8.870;2022-10-26T01:51:06;96745.03;;;9.34;100.00
11001;BME280;5553;48.506;8.870;2022-10-26T01:53:41;96762.00;;;9.31;100.00
11001;BME280;5553;48.506;8.870;2022-10-26T01:56:14;96770.50;;;9.33;100.00
11001;BME280;5553;48.506;8.870;2022-10-26T01:59:12;96782.16;;;9.16;100.00
11001;BME280;5553;48.506;8.870;2022-10-26T02:02:18;96789.72;;;9.19;100.00
11001;BME280;5553;48.506;8.870;2022-10-26T02:07:57;96792.53;;;9.17;100.00
11001;BME280;5553;48.506;8.870;2022-10-26T02:10:34;96798.84;;;9.08;100.00
11001;BME280;5553;48.506;8.870;2022-10-26T02:13:11;96808.31;;;8.94;100.00
11001;BME280;5553;48.506;8.870;2022-10-26T02:15:48;96816.03;;;8.96;100.00
11001;BME280;5553;48.506;8.870;2022-10-26T02:18:26;96818.13;;;9.00;100.00
11001;BME280;5553;48.506;8.870;2022-10-26T02:21:02;96808.78;;;8.98;100.00
11001;BME280;5553;48.506;8.870;2022-10-26T02:23:34;96809.91;;;9.04;100.00
11001;BME280;5553;48.506;8.870;2022-10-26T02:26:07;96830.19;;;9.18;100.00
11001;BME280;5553;48.506;8.870;2022-10-26T02:28:41;96820.94;;;9.22;100.00
11001;BME280;5553;48.506;8.870;2022-10-26T02:31:11;96833.63;;;9.27;100.00
11001;BME280;5553;48.506;8.870;2022-10-26T02:33:45;96847.88;;;9.32;100.00
11001;BME280;5553;48.506;8.870;2022-10-26T02:36:17;96857.75;;;9.53;100.00
11001;BME280;5553;48.506;8.870;2022-10-26T02:38:48;96850.97;;;9.59;100.00
11001;BME280;5553;48.506;8.870;2022-10-26T02:41:19;96837.69;;;9.52;100.00
11001;BME280;5553;48.506;8.870;2022-10-26T02:43:52;96851.97;;;9.58;100.00
11001;BME280;5553;48.506;8.870;2022-10-26T02:46:24;96854.44;;;9.59;100.00
11001;BME280;5553;48.506;8.870;2022-10-26T02:48:57;96845.81;;;9.65;100.00
11001;BME280;5553;48.506;8.870;2022-10-26T02:51:32;96847.66;;;9.80;100.00
11001;BME280;5553;48.506;8.870;2022-10-26T02:54:09;96845.34;;;10.00;100.00
11001;BME280;5553;48.506;8.870;2022-10-26T02:56:45;96844.34;;;10.01;100.00
11001;BME280;5553;48.506;8.870;2022-10-26T02:59:18;96845.47;;;10.06;100.00
11001;BME280;5553;48.506;8.870;2022-10-26T03:01:49;96842.97;;;10.05;100.00
11001;BME280;5553;48.506;8.870;2022-10-26T03:04:27;96848.56;;;10.10;100.00
11001;BME280;5553;48.506;8.870;2022-10-26T03:06:55;96844.28;;;10.24;100.00
11001;BME280;5553;48.506;8.870;2022-10-26T03:09:24;96823.00;;;10.25;100.00
11001;BME280;5553;48.506;8.870;2022-10-26T03:11:53;96818.09;;;10.22;100.00
11001;BME280;5553;48.506;8.870;2022-10-26T03:14:21;96821.63;;;10.14;100.00
11001;BME280;5553;48.506;8.870;2022-10-26T03:16:49;96842.56;;;10.16;100.00
11001;BME280;5553;48.506;8.870;2022-10-26T03:19:20;96842.97;;;10.28;100.00
11001;BME280;5553;48.506;8.870;2022-10-26T03:21:50;96841.59;;;10.47;100.00
11001;BME280;5553;48.506;8.870;2022-10-26T03:24:18;96828.88;;;10.50;100.00
11001;BME280;5553;48.506;8.870;2022-10-26T03:26:46;96821.78;;;10.51;100.00
11001;BME280;5553;48.506;8.870;2022-10-26T03:29:15;96817.50;;;10.50;100.00
11001;BME280;5553;48.506;8.870;2022-10-26T03:31:43;96821.78;;;10.51;100.00
11001;BME280;5553;48.506;8.870;2022-10-26T03:34:11;96808.22;;;10.54;100.00
11001;BME280;5553;48.506;8.870;2022-10-26T03:36:43;96812.38;;;10.63;100.00
11001;BME280;5553;48.506;8.870;2022-10-26T03:39:11;96799.81;;;10.65;100.00
11001;BME280;5553;48.506;8.870;2022-10-26T03:41:39;96808.84;;;10.56;100.00
11001;BME280;5553;48.506;8.870;2022-10-26T03:44:08;96788.09;;;10.53;100.00
11001;BME280;5553;48.506;8.870;2022-10-26T03:46:37;96766.00;;;10.54;100.00
11001;BME280;5553;48.506;8.870;2022-10-26T03:49:05;96765.88;;;10.62;100.00
11001;BME280;5553;48.506;8.870;2022-10-26T03:51:33;96776.75;;;10.88;100.00
11001;BME280;5553;48.506;8.870;2022-10-26T03:54:05;96758.44;;;10.87;100.00
11001;BME280;5553;48.506;8.870;2022-10-26T03:56:33;96746.13;;;10.73;100.00
11001;BME280;5553;48.506;8.870;2022-10-26T03:59:02;96758.97;;;10.61;100.00
11001;BME280;5553;48.506;8.870;2022-10-26T04:04:42;96819.38;;;10.56;100.00
11001;BME280;5553;48.506;8.870;2022-10-26T04:07:10;96832.03;;;10.60;100.00
11001;BME280;5553;48.506;8.870;2022-10-26T04:09:41;96849.06;;;10.43;100.00
11001;BME280;5553;48.506;8.870;2022-10-26T04:12:09;96866.06;;;10.40;100.00
11001;BME280;5553;48.506;8.870;2022-10-26T04:14:38;96875.97;;;10.38;100.00
11001;BME280;5553;48.506;8.870;2022-10-26T04:17:06;96884.00;;;10.60;100.00
11001;BME280;5553;48.506;8.870;2022-10-26T04:19:34;96870.06;;;10.66;100.00
11001;BME280;5553;48.506;8.870;2022-10-26T04:22:03;96851.41;;;10.67;100.00
11001;BME280;5553;48.506;8.870;2022-10-26T04:24:31;96836.41;;;10.68;100.00
11001;BME280;5553;48.506;8.870;2022-10-26T04:27:02;96828.19;;;10.63;100.00
11001;BME280;5553;48.506;8.870;2022-10-26T04:29:30;96825.97;;;10.60;100.00
11001;BME280;5553;48.506;8.870;2022-10-26T04:31:58;96831.22;;;10.60;100.00
11001;BME280;5553;48.506;8.870;2022-10-26T04:34:27;96832.56;;;10.56;100.00
11001;BME280;5553;48.506;8.870;2022-10-26T04:36:55;96835.97;;;10.50;100.00
11001;BME280;5553;48.506;8.870;2022-10-26T04:39:23;96842.69;;;10.37;100.00
11001;BME280;5553;48.506;8.870;2022-10-26T04:41:52;96840.84;;;10.23;100.00
11001;BME280;5553;48.506;8.870;2022-10-26T04:44:23;96857.38;;;10.17;100.00
11001;BME280;5553;48.506;8.870;2022-10-26T04:46:52;96856.72;;;10.15;100.00
11001;BME280;5553;48.506;8.870;2022-10-26T04:49:20;96877.47;;;10.18;100.00
11001;BME280;5553;48.506;8.870;2022-10-26T04:51:48;96883.44;;;10.12;100.00
11001;BME280;5553;48.506;8.870;2022-10-26T04:54:17;96880.72;;;10.05;100.00
11001;BME280;5553;48.506;8.870;2022-10-26T04:56:45;96889.47;;;10.06;100.00
11001;BME280;5553;48.506;8.870;2022-10-26T04:59:14;96894.72;;;10.06;100.00
11001;BME280;5553;48.506;8.870;2022-10-26T05:01:45;96901.91;;;10.12;100.00
11001;BME280;5553;48.506;8.870;2022-10-26T05:04:13;96897.56;;;10.19;100.00
11001;BME280;5553;48.506;8.870;2022-10-26T05:06:42;96892.16;;;10.35;100.00
11001;BME280;5553;48.506;8.870;2022-10-26T05:09:10;96883.34;;;10.58;100.00
11001;BME280;5553;48.506;8.870;2022-10-26T05:11:38;96867.41;;;10.66;100.00
11001;BME280;5553;48.506;8.870;2022-10-26T05:14:07;96872.13;;;10.85;100.00
11001;BME280;5553;48.506;8.870;2022-10-26T05:16:37;96841.91;;;10.88;100.00
11001;BME280;5553;48.506;8.870;2022-10-26T05:19:08;96830.22;;;11.12;100.00
11001;BME280;5553;48.506;8.870;2022-10-26T05:21:37;96812.63;;;11.19;100.00
11001;BME280;5553;48.506;8.870;2022-10-26T05:24:06;96798.75;;;11.17;100.00
11001;BME280;5553;48.506;8.870;2022-10-26T05:26:34;96791.53;;;11.04;100.00
11001;BME280;5553;48.506;8.870;2022-10-26T05:29:02;96789.84;;;11.18;100.00
11001;BME280;5553;48.506;8.870;2022-10-26T05:31:32;96780.66;;;11.14;100.00
11001;BME280;5553;48.506;8.870;2022-10-26T05:34:00;96778.91;;;11.21;100.00
11001;BME280;5553;48.506;8.870;2022-10-26T05:36:31;96770.00;;;11.22;100.00
11001;BME280;5553;48.506;8.870;2022-10-26T05:39:00;96772.56;;;11.15;100.00
11001;BME280;5553;48.506;8.870;2022-10-26T05:41:28;96772.88;;;11.06;100.00
11001;BME280;5553;48.506;8.870;2022-10-26T05:43:56;96780.03;;;11.12;100.00
11001;BME280;5553;48.506;8.870;2022-10-26T05:46:25;96786.50;;;11.09;100.00
11001;BME280;5553;48.506;8.870;2022-10-26T05:48:53;96783.66;;;11.11;100.00
11001;BME280;5553;48.506;8.870;2022-10-26T05:51:21;96796.81;;;11.04;100.00
11001;BME280;5553;48.506;8.870;2022-10-26T05:53:53;96803.16;;;11.10;100.00
11001;BME280;5553;48.506;8.870;2022-10-26T05:56:33;96802.91;;;11.05;100.00
11001;BME280;5553;48.506;8.870;2022-10-26T05:59:03;96801.63;;;11.01;100.00
11001;BME280;5553;48.506;8.870;2022-10-26T06:15:10;96800.38;;;10.97;100.00
11001;BME280;5553;48.506;8.870;2022-10-26T06:17:46;96822.16;;;10.99;100.00
11001;BME280;5553;48.506;8.870;2022-10-26T06:20:28;96832.50;;;11.00;100.00
11001;BME280;5553;48.506;8.870;2022-10-26T06:23:08;96844.16;;;11.06;100.00
11001;BME280;5553;48.506;8.870;2022-10-26T06:25:44;96843.03;;;11.15;100.00
11001;BME280;5553;48.506;8.870;2022-10-26T06:28:22;96846.00;;;11.27;100.00
11001;BME280;5553;48.506;8.870;2022-10-26T06:30:57;96851.88;;;11.44;100.00
11001;BME280;5553;48.506;8.870;2022-10-26T06:33:25;96841.56;;;11.49;100.00
11001;BME280;5553;48.506;8.870;2022-10-26T06:36:00;96837.66;;;11.66;100.00
11001;BME280;5553;48.506;8.870;2022-10-26T06:38:32;96823.00;;;11.63;100.00
11001;BME280;5553;48.506;8.870;2022-10-26T06:41:01;96820.41;;;11.70;100.00
11001;BME280;5553;48.506;8.870;2022-10-26T06:43:33;96821.53;;;11.61;100.00
11001;BME280;5553;48.506;8.870;2022-10-26T06:46:12;96817.94;;;11.69;100.00
11001;BME280;5553;48.506;8.870;2022-10-26T06:48:48;96824.06;;;11.91;100.00
11001;BME280;5553;48.506;8.870;2022-10-26T06:51:19;96815.09;;;11.92;100.00
11001;BME280;5553;48.506;8.870;2022-10-26T06:53:54;96808.56;;;11.88;100.00
11001;BME280;5553;48.506;8.870;2022-10-26T06:56:25;96812.28;;;11.93;100.00
11001;BME280;5553;48.506;8.870;2022-10-26T06:58:54;96813.97;;;12.01;100.00
11001;BME280;5553;48.506;8.870;2022-10-26T07:01:30;96819.47;;;12.06;100.00
11001;BME280;5553;48.506;8.870;2022-10-26T07:03:58;96811.97;;;12.09;100.00
11001;BME280;5553;48.506;8.870;2022-10-26T07:06:27;96812.44;;;12.20;100.00
11001;BME280;5553;48.506;8.870;2022-10-26T07:08:55;96814.91;;;12.21;100.00
11001;BME280;5553;48.506;8.870;2022-10-26T07:11:23;96810.84;;;12.25;100.00
11001;BME280;5553;48.506;8.870;2022-10-26T07:13:52;96800.44;;;12.24;100.00
11001;BME280;5553;48.506;8.870;2022-10-26T07:16:20;96805.31;;;12.20;100.00
11001;BME280;5553;48.506;8.870;2022-10-26T07:18:51;96812.91;;;12.30;100.00
11001;BME280;5553;48.506;8.870;2022-10-26T07:21:20;96809.50;;;12.36;100.00
11001;BME280;5553;48.506;8.870;2022-10-26T07:23:48;96806.06;;;12.42;100.00
11001;BME280;5553;48.506;8.870;2022-10-26T07:26:16;96812.59;;;12.46;100.00
11001;BME280;5553;48.506;8.870;2022-10-26T07:28:47;96812.00;;;12.51;100.00
11001;BME280;5553;48.506;8.870;2022-10-26T07:31:15;96825.66;;;12.54;100.00
11001;BME280;5553;48.506;8.870;2022-10-26T07:33:44;96823.22;;;12.53;100.00
11001;BME280;5553;48.506;8.870;2022-10-26T07:36:15;96823.25;;;12.60;100.00
11001;BME280;5553;48.506;8.870;2022-10-26T07:38:43;96825.50;;;12.63;100.00
11001;BME280;5553;48.506;8.870;2022-10-26T07:41:11;96831.41;;;12.65;100.00
11001;BME280;5553;48.506;8.870;2022-10-26T07:43:40;96833.06;;;12.66;100.00
11001;BME280;5553;48.506;8.870;2022-10-26T07:46:09;96823.28;;;12.66;100.00
11001;BME280;5553;48.506;8.870;2022-10-26T07:48:37;96836.56;;;12.73;100.00
11001;BME280;5553;48.506;8.870;2022-10-26T07:51:06;96854.69;;;12.76;100.00
11001;BME280;5553;48.506;8.870;2022-10-26T07:53:37;96852.84;;;12.76;100.00
11001;BME280;5553;48.506;8.870;2022-10-26T07:56:06;96865.31;;;12.83;100.00
11001;BME280;5553;48.506;8.870;2022-10-26T07:58:35;96869.63;;;12.90;100.00
11001;BME280;5553;48.506;8.870;2022-10-26T08:01:08;96869.84;;;13.02;100.00
11001;BME280;5553;48.506;8.870;2022-10-26T08:06:06;96876.31;;;13.27;100.00
11001;BME280;5553;48.506;8.870;2022-10-26T08:08:43;96872.47;;;13.30;100.00
11001;BME280;5553;48.506;8.870;2022-10-26T08:11:13;96886.34;;;13.45;100.00
11001;BME280;5553;48.506;8.870;2022-10-26T08:16:09;96878.56;;;13.31;100.00
11001;BME280;5553;48.506;8.870;2022-10-26T08:18:37;96865.13;;;13.45;100.00
11001;BME280;5553;48.506;8.870;2022-10-26T08:21:09;96844.16;;;13.44;100.00
11001;BME280;5553;48.506;8.870;2022-10-26T08:23:38;96845.41;;;13.74;100.00
11001;BME280;5553;48.506;8.870;2022-10-26T08:33:46;96798.28;;;13.83;100.00
11001;BME280;5553;48.506;8.870;2022-10-26T08:36:16;96792.97;;;13.90;100.00
11001;BME280;5553;48.506;8.870;2022-10-26T08:43:48;96801.16;;;13.95;100.00
11001;BME280;5553;48.506;8.870;2022-10-26T08:46:22;96798.28;;;13.90;100.00
11001;BME280;5553;48.506;8.870;2022-10-26T08:48:59;96795.22;;;13.93;100.00
11001;BME280;5553;48.506;8.870;2022-10-26T08:51:32;96812.97;;;13.99;100.00
11001;BME280;5553;48.506;8.870;2022-10-26T08:54:07;96800.97;;;14.75;100.00
11001;BME280;5553;48.506;8.870;2022-10-26T08:56:41;96802.66;;;14.42;100.00
11001;BME280;5553;48.506;8.870;2022-10-26T08:59:15;96797.16;;;14.44;100.00
11001;BME280;5553;48.506;8.870;2022-10-26T09:01:45;96806.16;;;14.43;100.00
11001;BME280;5553;48.506;8.870;2022-10-26T09:04:17;96811.25;;;14.44;100.00
11001;BME280;5553;48.506;8.870;2022-10-26T09:06:53;96807.59;;;14.39;100.00
11001;BME280;5553;48.506;8.870;2022-10-26T09:09:29;96805.91;;;14.64;100.00
11001;BME280;5553;48.506;8.870;2022-10-26T09:12:06;96799.03;;;14.50;100.00
11001;BME280;5553;48.506;8.870;2022-10-26T09:14:44;96810.03;;;14.40;100.00
11001;BME280;5553;48.506;8.870;2022-10-26T09:17:26;96811.66;;;14.61;100.00
11001;BME280;5553;48.506;8.870;2022-10-26T09:20:17;96806.28;;;14.81;100.00
11001;BME280;5553;48.506;8.870;2022-10-26T09:22:56;96795.38;;;15.91;100.00
11001;BME280;5553;48.506;8.870;2022-10-26T09:25:28;96776.38;;;17.58;100.00
11001;BME280;5553;48.506;8.870;2022-10-26T09:28:01;96763.59;;;17.48;100.00
11001;BME280;5553;48.506;8.870;2022-10-26T09:30:30;96749.97;;;17.80;100.00
11001;BME280;5553;48.506;8.870;2022-10-26T09:33:03;96751.34;;;17.71;100.00
11001;BME280;5553;48.506;8.870;2022-10-26T09:35:41;96755.03;;;19.21;100.00
11001;BME280;5553;48.506;8.870;2022-10-26T09:38:14;96759.22;;;17.66;100.00
11001;BME280;5553;48.506;8.870;2022-10-26T09:40:48;96769.59;;;19.87;100.00
11001;BME280;5553;48.506;8.870;2022-10-26T09:43:24;96755.13;;;20.05;98.55
11001;BME280;5553;48.506;8.870;2022-10-26T09:45:55;96741.47;;;19.39;94.84
11001;BME280;5553;48.506;8.870;2022-10-26T09:48:28;96750.56;;;20.06;92.59
11001;BME280;5553;48.506;8.870;2022-10-26T09:51:01;96770.31;;;20.39;93.06
11001;BME280;5553;48.506;8.870;2022-10-26T09:53:30;96764.53;;;19.12;92.72
11001;BME280;5553;48.506;8.870;2022-10-26T09:56:02;96773.25;;;20.20;92.08
11001;BME280;5553;48.506;8.870;2022-10-26T09:58:34;96760.00;;;21.13;87.29
11001;BME280;5553;48.506;8.870;2022-10-26T10:01:04;96774.44;;;21.12;87.22
11001;BME280;5553;48.506;8.870;2022-10-26T10:03:32;96754.75;;;20.35;85.76
11001;BME280;5553;48.506;8.870;2022-10-26T10:06:20;96759.59;;;20.55;85.52
11001;BME280;5553;48.506;8.870;2022-10-26T10:09:04;96773.50;;;21.23;85.02
11001;BME280;5553;48.506;8.870;2022-10-26T10:11:39;96809.31;;;19.05;97.57
11001;BME280;5553;48.506;8.870;2022-10-26T10:14:12;96806.34;;;18.66;100.00
11001;BME280;5553;48.506;8.870;2022-10-26T10:16:49;96789.44;;;18.25;96.89
11001;BME280;5553;48.506;8.870;2022-10-26T10:19:23;96811.13;;;19.16;100.00
11001;BME280;5553;48.506;8.870;2022-10-26T10:21:58;96795.94;;;19.33;95.97
11001;BME280;5553;48.506;8.870;2022-10-26T10:24:27;96789.22;;;19.76;94.00
11001;BME280;5553;48.506;8.870;2022-10-26T10:26:59;96793.88;;;19.69;94.12
11001;BME280;5553;48.506;8.870;2022-10-26T10:29:29;96778.16;;;19.56;91.88
11001;BME280;5553;48.506;8.870;2022-10-26T10:31:59;96789.53;;;19.80;92.01
11001;BME280;5553;48.506;8.870;2022-10-26T10:34:29;96802.03;;;20.08;94.01
11001;BME280;5553;48.506;8.870;2022-10-26T10:37:03;96797.00;;;19.95;94.54
11001;BME280;5553;48.506;8.870;2022-10-26T10:39:37;96791.31;;;20.08;92.52
11001;BME280;5553;48.506;8.870;2022-10-26T11:04:49;96828.03;;;18.93;95.35
11001;BME280;5553;48.506;8.870;2022-10-26T11:07:24;96837.16;;;18.57;99.44
11001;BME280;5553;48.506;8.870;2022-10-26T11:09:56;96832.84;;;18.32;98.88
11001;BME280;5553;48.506;8.870;2022-10-26T11:12:29;96835.06;;;18.00;99.68
11001;BME280;5553;48.506;8.870;2022-10-26T11:15:02;96818.88;;;19.29;93.62
11001;BME280;5553;48.506;8.870;2022-10-26T11:17:39;96807.38;;;19.17;90.00
11001;BME280;5553;48.506;8.870;2022-10-26T11:20:15;96816.34;;;18.59;91.94
11001;BME280;5553;48.506;8.870;2022-10-26T11:22:59;96817.69;;;19.54;90.94
11001;BME280;5553;48.506;8.870;2022-10-26T11:25:33;96811.22;;;19.50;88.83
11001;BME280;5553;48.506;8.870;2022-10-26T11:28:05;96835.44;;;19.88;91.72
11001;BME280;5553;48.506;8.870;2022-10-26T11:30:42;96813.88;;;19.50;88.33
11001;BME280;5553;48.506;8.870;2022-10-26T11:33:17;96823.25;;;19.07;90.12
11001;BME280;5553;48.506;8.870;2022-10-26T11:35:51;96837.06;;;19.15;92.83
11001;BME280;5553;48.506;8.870;2022-10-26T11:38:28;96829.50;;;19.12;92.31
11001;BME280;5553;48.506;8.870;2022-10-26T11:41:01;96830.22;;;19.08;94.33
11001;BME280;5553;48.506;8.870;2022-10-26T11:43:35;96846.47;;;19.75;93.87
11001;BME280;5553;48.506;8.870;2022-10-26T11:46:09;96820.44;;;20.21;88.50
11001;BME280;5553;48.506;8.870;2022-10-26T11:48:45;96806.47;;;19.40;87.09
11001;BME280;5553;48.506;8.870;2022-10-26T11:51:30;96825.44;;;19.10;89.62
11001;BME280;5553;48.506;8.870;2022-10-26T11:54:03;96809.00;;;19.75;86.84
11001;BME280;5553;48.506;8.870;2022-10-26T11:56:38;96820.00;;;19.33;87.43
11001;BME280;5553;48.506;8.870;2022-10-26T11:59:14;96821.91;;;19.50;86.38
11001;BME280;5553;48.506;8.870;2022-10-26T12:01:46;96803.19;;;19.50;84.66
11001;BME280;5553;48.506;8.870;2022-10-26T12:04:15;96826.50;;;19.09;87.45
11001;BME280;5553;48.506;8.870;2022-10-26T12:06:48;96851.38;;;19.38;90.14
11001;BME280;5553;48.506;8.870;2022-10-26T12:09:22;96832.22;;;20.03;86.35
11001;BME280;5553;48.506;8.870;2022-10-26T12:11:56;96808.84;;;19.99;84.14
11001;BME280;5553;48.506;8.870;2022-10-26T12:14:31;96837.31;;;20.39;86.02
11001;BME280;5553;48.506;8.870;2022-10-26T12:17:09;96804.56;;;20.36;81.83
11001;BME280;5553;48.506;8.870;2022-10-26T12:19:45;96805.59;;;20.69;81.87
11001;BME280;5553;48.506;8.870;2022-10-26T12:22:19;96812.53;;;20.65;79.87
11001;BME280;5553;48.506;8.870;2022-10-26T12:25:06;96812.13;;;20.78;80.13
11001;BME280;5553;48.506;8.870;2022-10-26T12:27:50;96807.94;;;20.10;79.20
11001;BME280;5553;48.506;8.870;2022-10-26T12:30:27;96818.75;;;19.24;82.36
11001;BME280;5553;48.506;8.870;2022-10-26T12:32:57;96841.59;;;19.89;83.73
11001;BME280;5553;48.506;8.870;2022-10-26T12:35:34;96819.06;;;19.85;80.87
11001;BME280;5553;48.506;8.870;2022-10-26T12:41:23;96814.28;;;20.21;79.41
11001;BME280;5553;48.506;8.870;2022-10-26T12:43:56;96814.34;;;20.26;78.81
11001;BME280;5553;48.506;8.870;2022-10-26T12:46:40;96832.50;;;20.41;80.94
11001;BME280;5553;48.506;8.870;2022-10-26T12:52:30;96842.06;;;20.70;80.73
11001;BME280;5553;48.506;8.870;2022-10-26T12:55:32;96818.41;;;20.67;78.23
11001;BME280;5553;48.506;8.870;2022-10-26T13:01:35;96833.69;;;20.50;79.87
11001;BME280;5553;48.506;8.870;2022-10-26T13:07:18;96820.16;;;20.56;76.62
11001;BME280;5553;48.506;8.870;2022-10-26T13:09:55;96839.47;;;20.75;78.43
11001;BME280;5553;48.506;8.870;2022-10-26T13:12:26;96826.41;;;20.84;77.32
11001;BME280;5553;48.506;8.870;2022-10-26T13:15:04;96831.34;;;20.70;77.48
11001;BME280;5553;48.506;8.870;2022-10-26T13:17:33;96830.22;;;20.49;78.40
11001;BME280;5553;48.506;8.870;2022-10-26T13:20:04;96838.50;;;20.48;78.63
11001;BME280;5553;48.506;8.870;2022-10-26T13:22:43;96827.66;;;20.38;77.35
11001;BME280;5553;48.506;8.870;2022-10-26T13:25:19;96846.94;;;20.40;79.33
11001;BME280;5553;48.506;8.870;2022-10-26T13:28:02;96821.41;;;20.15;77.11
11001;BME280;5553;48.506;8.870;2022-10-26T13:30:48;96824.19;;;20.03;77.78
11001;BME280;5553;48.506;8.870;2022-10-26T13:33:22;96834.31;;;20.35;77.68
11001;BME280;5553;48.506;8.870;2022-10-26T13:35:54;96844.84;;;20.42;78.09
11001;BME280;5553;48.506;8.870;2022-10-26T13:38:28;96835.69;;;20.38;77.56
11001;BME280;5553;48.506;8.870;2022-10-26T13:41:05;96826.66;;;20.44;76.61
11001;BME280;5553;48.506;8.870;2022-10-26T13:43:35;96829.91;;;20.63;75.47
11001;BME280;5553;48.506;8.870;2022-10-26T13:46:22;96829.09;;;20.62;75.05
11001;BME280;5553;48.506;8.870;2022-10-26T13:48:53;96834.19;;;20.64;74.55
11001;BME280;5553;48.506;8.870;2022-10-26T13:51:32;96845.97;;;20.46;76.28
11001;BME280;5553;48.506;8.870;2022-10-26T13:54:09;96865.34;;;20.87;76.51
11001;BME280;5553;48.506;8.870;2022-10-26T13:56:43;96844.91;;;20.64;75.53
11001;BME280;5553;48.506;8.870;2022-10-26T13:59:15;96853.41;;;20.77;75.16
11001;BME280;5553;48.506;8.870;2022-10-26T14:02:04;96854.09;;;20.51;75.50
11001;BME280;5553;48.506;8.870;2022-10-26T14:04:33;96840.63;;;20.46;74.05
11001;BME280;5553;48.506;8.870;2022-10-26T14:07:01;96867.66;;;20.61;76.06
11001;BME280;5553;48.506;8.870;2022-10-26T14:09:30;96881.38;;;20.65;77.00
11001;BME280;5553;48.506;8.870;2022-10-26T14:11:59;96868.72;;;20.60;75.35
11001;BME280;5553;48.506;8.870;2022-10-26T14:14:31;96875.56;;;20.90;74.47
11001;BME280;5553;48.506;8.870;2022-10-26T14:17:03;96878.69;;;21.03;74.56
11001;BME280;5553;48.506;8.870;2022-10-26T14:19:33;96882.94;;;21.21;74.30
11001;BME280;5553;48.506;8.870;2022-10-26T14:22:03;96875.25;;;21.30;73.08
11001;BME280;5553;48.506;8.870;2022-10-26T14:24:34;96883.44;;;21.18;73.94
11001;BME280;5553;48.506;8.870;2022-10-26T14:27:13;96878.75;;;21.30;71.70
11001;BME280;5553;48.506;8.870;2022-10-26T14:29:42;96895.25;;;21.66;73.70
11001;BME280;5553;48.506;8.870;2022-10-26T14:32:26;96896.97;;;21.28;74.41
11001;BME280;5553;48.506;8.870;2022-10-26T14:34:56;96880.34;;;20.88;74.50
11001;BME280;5553;48.506;8.870;2022-10-26T14:37:34;96873.09;;;20.66;73.84
11001;BME280;5553;48.506;8.870;2022-10-26T14:40:05;96880.81;;;20.46;74.94
11001;BME280;5553;48.506;8.870;2022-10-26T14:42:37;96892.34;;;20.46;76.21
11001;BME280;5553;48.506;8.870;2022-10-26T14:45:21;96904.75;;;20.35;76.55
11001;BME280;5553;48.506;8.870;2022-10-26T14:47:53;96913.72;;;20.41;78.08